createdAt,value
2022-11-29T00:01:18.176Z,62.60
2022-11-29T00:03:47.913Z,52.40
2022-11-29T00:06:16.960Z,52.63
2022-11-29T00:08:45.607Z,54.97
2022-11-29T00:11:34.972Z,61.28
2022-11-29T00:14:03.413Z,62.15
2022-11-29T00:16:31.766Z,59.58
2022-11-29T00:19:01.564Z,66.75
2022-11-29T00:21:30.070Z,58.20
2022-11-29T00:23:58.400Z,57.88
2022-11-29T00:26:26.971Z,57.97
2022-11-29T00:28:55.562Z,53.75
2022-11-29T00:31:24.981Z,52.75
2022-11-29T00:33:53.717Z,53.33
2022-11-29T00:36:23.432Z,52.42
2022-11-29T00:38:53.873Z,52.20
2022-11-29T00:41:22.372Z,58.17
2022-11-29T00:43:50.679Z,49.00
2022-11-29T00:46:19.107Z,59.75
2022-11-29T00:48:47.557Z,54.95
2022-11-29T00:51:15.967Z,61.42
2022-11-29T00:53:45.751Z,55.35
2022-11-29T00:56:14.190Z,56.60
2022-11-29T00:58:43.557Z,52.08
2022-11-29T01:01:12.259Z,55.38
2022-11-29T01:03:40.754Z,56.03
2022-11-29T01:06:10.442Z,56.40
2022-11-29T01:08:39.141Z,47.88
2022-11-29T01:11:10.401Z,51.95
2022-11-29T01:13:38.810Z,52.05
2022-11-29T01:16:07.490Z,50.78
2022-11-29T01:18:35.986Z,52.53
2022-11-29T01:21:05.787Z,48.65
2022-11-29T01:23:34.218Z,58.22
2022-11-29T01:26:03.510Z,58.75
2022-11-29T01:28:33.312Z,54.85
2022-11-29T01:31:01.716Z,51.58
2022-11-29T01:33:30.069Z,57.50
2022-11-29T01:35:58.452Z,52.47
2022-11-29T01:38:26.798Z,60.78
2022-11-29T01:40:59.086Z,58.97
2022-11-29T01:43:27.482Z,57.97
2022-11-29T01:45:57.722Z,66.80
2022-11-29T01:48:27.671Z,66.53
2022-11-29T01:50:56.923Z,69.97
2022-11-29T01:53:25.483Z,81.13
2022-11-29T01:55:55.871Z,64.78
2022-11-29T01:58:24.354Z,76.40
2022-11-29T02:00:52.786Z,72.13
2022-11-29T02:03:22.574Z,73.60
2022-11-29T02:05:52.177Z,76.70
2022-11-29T02:08:23.417Z,81.47
2022-11-29T02:10:56.795Z,84.55
2022-11-29T02:13:29.997Z,95.68
2022-11-29T02:16:02.964Z,91.15
2022-11-29T02:18:39.050Z,86.78
2022-11-29T02:21:19.821Z,90.50
2022-11-29T02:24:03.633Z,95.68
2022-11-29T02:26:47.017Z,100.30
2022-11-29T02:29:30.073Z,98.70
2022-11-29T02:32:16.114Z,109.50
2022-11-29T02:34:54.032Z,109.97
2022-11-29T02:37:40.029Z,117.70
2022-11-29T02:40:24.909Z,125.15
2022-11-29T02:43:20.373Z,122.18
2022-11-29T02:45:56.757Z,126.40
2022-11-29T02:48:42.830Z,100.05
2022-11-29T02:51:15.082Z,115.32
2022-11-29T02:53:46.051Z,124.82
2022-11-29T02:56:18.881Z,110.20
2022-11-29T02:58:49.892Z,105.85
2022-11-29T03:01:21.754Z,109.18
2022-11-29T03:03:53.815Z,110.22
2022-11-29T03:06:28.567Z,115.60
2022-11-29T03:09:00.460Z,121.82
2022-11-29T03:11:34.382Z,119.35
2022-11-29T03:14:10.244Z,125.00
2022-11-29T03:16:43.237Z,115.90
2022-11-29T03:19:19.865Z,119.90
2022-11-29T03:21:54.378Z,108.78
2022-11-29T03:24:25.456Z,114.75
2022-11-29T03:26:57.816Z,103.60
2022-11-29T03:29:28.735Z,103.85
2022-11-29T03:32:02.407Z,101.57
2022-11-29T03:34:36.732Z,79.18
2022-11-29T03:37:11.177Z,101.50
2022-11-29T03:39:44.521Z,91.18
2022-11-29T03:42:15.196Z,92.65
2022-11-29T03:44:48.640Z,97.68
2022-11-29T03:47:18.061Z,95.47
2022-11-29T03:49:49.320Z,102.82
2022-11-29T03:52:21.475Z,82.75
2022-11-29T03:54:55.142Z,86.43
2022-11-29T03:57:28.294Z,68.45
2022-11-29T04:00:03.671Z,103.00
2022-11-29T04:02:45.005Z,88.57
2022-11-29T04:05:31.889Z,92.22
2022-11-29T04:08:17.510Z,102.45
2022-11-29T04:10:56.098Z,92.28
2022-11-29T04:13:45.222Z,94.10
2022-11-29T04:16:31.982Z,120.03
2022-11-29T04:19:04.511Z,98.40
2022-11-29T04:21:35.283Z,91.00
2022-11-29T04:24:21.542Z,102.72
2022-11-29T04:27:01.581Z,87.22
2022-11-29T04:29:44.495Z,78.18
2022-11-29T04:32:21.584Z,74.93
2022-11-29T04:34:58.372Z,71.47
2022-11-29T04:37:34.992Z,77.28
2022-11-29T04:40:24.078Z,70.05
2022-11-29T04:43:08.133Z,78.25
2022-11-29T04:45:54.947Z,80.72
2022-11-29T04:48:32.716Z,76.20
2022-11-29T04:51:08.494Z,73.85
2022-11-29T04:53:44.617Z,71.88
2022-11-29T04:56:16.967Z,64.88
2022-11-29T04:58:50.671Z,55.17
2022-11-29T05:01:22.721Z,64.10
2022-11-29T05:03:57.018Z,63.33
2022-11-29T05:06:29.796Z,59.78
2022-11-29T05:09:01.912Z,53.65
2022-11-29T05:11:45.397Z,50.35
2022-11-29T05:14:18.815Z,42.38
2022-11-29T05:16:49.033Z,49.80
2022-11-29T05:19:36.906Z,41.25
2022-11-29T05:22:14.849Z,53.53
2022-11-29T05:24:47.744Z,46.83
2022-11-29T05:27:18.474Z,41.72
2022-11-29T05:29:51.713Z,35.70
2022-11-29T05:32:26.954Z,55.33
2022-11-29T05:35:00.296Z,52.40
2022-11-29T05:37:33.353Z,92.50
2022-11-29T05:40:19.421Z,99.97
2022-11-29T05:42:56.609Z,123.60
2022-11-29T05:45:29.384Z,103.63
2022-11-29T05:48:02.098Z,113.57
2022-11-29T05:50:32.637Z,134.60
2022-11-29T05:53:03.959Z,120.90
2022-11-29T05:55:37.298Z,108.65
2022-11-29T05:58:10.566Z,117.10
2022-11-29T06:00:42.992Z,165.93
2022-11-29T06:03:16.468Z,183.85
2022-11-29T06:05:49.368Z,139.82
2022-11-29T06:08:20.310Z,159.85
2022-11-29T06:10:54.955Z,150.45
2022-11-29T06:13:30.523Z,120.50
2022-11-29T06:16:25.158Z,195.85
2022-11-29T06:19:05.095Z,123.47
2022-11-29T06:21:37.360Z,243.60
2022-11-29T06:24:25.762Z,111.85
2022-11-29T06:27:07.884Z,135.15
2022-11-29T06:29:39.980Z,113.30
2022-11-29T06:32:19.077Z,143.82
2022-11-29T06:34:52.078Z,176.32
2022-11-29T06:37:24.493Z,135.70
2022-11-29T06:39:53.137Z,141.05
2022-11-29T06:42:21.459Z,118.70
2022-11-29T06:44:50.072Z,131.05
2022-11-29T06:47:23.227Z,123.18
2022-11-29T06:49:53.668Z,136.23
2022-11-29T06:52:29.014Z,137.05
2022-11-29T06:55:10.763Z,112.43
2022-11-29T06:57:45.234Z,115.35
2022-11-29T07:00:17.348Z,132.20
2022-11-29T07:03:01.685Z,130.77
2022-11-29T07:05:31.472Z,131.40
2022-11-29T07:08:02.845Z,127.25
2022-11-29T07:10:32.497Z,114.03
2022-11-29T07:13:01.074Z,129.23
2022-11-29T07:15:29.974Z,124.97
2022-11-29T07:18:13.178Z,130.60
2022-11-29T07:20:46.843Z,134.32
2022-11-29T07:23:18.236Z,110.03
2022-11-29T07:25:53.757Z,119.85
2022-11-29T07:28:31.395Z,127.30
2022-11-29T07:31:02.403Z,113.30
2022-11-29T07:33:33.705Z,109.38
2022-11-29T07:36:08.083Z,99.55
2022-11-29T07:38:40.589Z,110.85
2022-11-29T07:41:13.736Z,110.20
2022-11-29T07:43:47.459Z,115.53
2022-11-29T07:46:15.873Z,134.02
2022-11-29T07:48:44.306Z,124.70
2022-11-29T07:51:14.318Z,117.50
2022-11-29T07:53:43.694Z,100.75
2022-11-29T07:56:12.296Z,106.88
2022-11-29T07:58:40.939Z,124.47
2022-11-29T08:01:09.525Z,133.75
2022-11-29T08:03:37.980Z,113.68
2022-11-29T08:06:06.324Z,105.72
2022-11-29T08:08:42.243Z,96.05
2022-11-29T08:11:12.299Z,107.32
2022-11-29T08:13:40.652Z,117.40
2022-11-29T08:16:09.261Z,104.30
2022-11-29T08:18:37.879Z,123.43
2022-11-29T08:21:07.717Z,97.80
2022-11-29T08:23:37.512Z,100.35
2022-11-29T08:26:06.095Z,103.38
2022-11-29T08:28:34.576Z,120.20
2022-11-29T08:31:03.382Z,134.20
2022-11-29T08:33:32.046Z,132.70
2022-11-29T08:36:05.757Z,130.73
2022-11-29T08:38:34.166Z,109.32
2022-11-29T08:41:04.323Z,133.30
2022-11-29T08:43:32.685Z,144.43
2022-11-29T08:46:01.565Z,126.15
2022-11-29T08:48:30.022Z,124.07
2022-11-29T08:50:58.558Z,123.47
2022-11-29T08:53:46.402Z,136.73
2022-11-29T08:57:04.583Z,121.70
2022-11-29T08:59:07.327Z,121.63
2022-11-29T09:01:35.721Z,126.43
2022-11-29T09:04:05.081Z,145.45
2022-11-29T09:06:34.445Z,118.97
2022-11-29T09:09:03.185Z,116.95
2022-11-29T09:11:34.187Z,110.30
2022-11-29T09:14:03.473Z,136.68
2022-11-29T09:16:33.155Z,120.55
2022-11-29T09:19:01.772Z,126.32
2022-11-29T09:21:31.963Z,120.53
2022-11-29T09:24:00.818Z,124.20
2022-11-29T09:26:30.207Z,105.57
2022-11-29T09:29:02.170Z,107.38
2022-11-29T09:31:31.006Z,117.07
2022-11-29T09:33:59.629Z,108.10
2022-11-29T09:36:29.416Z,99.43
2022-11-29T09:38:57.925Z,103.68
2022-11-29T09:41:44.284Z,99.18
2022-11-29T09:44:21.078Z,114.03
2022-11-29T09:46:58.568Z,95.35
2022-11-29T09:49:40.674Z,94.15
2022-11-29T09:52:14.103Z,109.75
2022-11-29T09:54:49.212Z,93.70
2022-11-29T09:57:19.247Z,92.43
2022-11-29T09:59:50.071Z,82.85
2022-11-29T10:02:21.585Z,81.50
2022-11-29T10:04:52.072Z,84.60
2022-11-29T10:07:23.095Z,85.63
2022-11-29T10:09:53.822Z,80.47
2022-11-29T10:12:24.896Z,84.55
2022-11-29T10:14:56.785Z,68.15
2022-11-29T10:17:30.201Z,72.35
2022-11-29T10:20:00.555Z,70.05
2022-11-29T10:22:35.973Z,67.43
2022-11-29T10:25:05.214Z,68.90
2022-11-29T10:27:33.729Z,71.75
2022-11-29T10:30:06.386Z,75.35
2022-11-29T10:32:34.737Z,70.10
2022-11-29T10:35:03.250Z,78.47
2022-11-29T10:37:33.011Z,115.57
2022-11-29T10:40:04.487Z,77.45
2022-11-29T10:42:53.464Z,84.20
2022-11-29T10:45:27.408Z,77.03
2022-11-29T10:47:56.887Z,74.68
2022-11-29T10:50:26.169Z,70.18
2022-11-29T10:52:59.911Z,69.90
2022-11-29T10:55:29.791Z,58.83
2022-11-29T10:58:11.473Z,62.13
2022-11-29T11:00:52.760Z,61.25
2022-11-29T11:03:27.707Z,64.95
2022-11-29T11:06:00.362Z,65.38
2022-11-29T11:08:29.776Z,66.57
2022-11-29T11:11:01.657Z,73.97
2022-11-29T11:13:32.076Z,66.22
2022-11-29T11:16:09.780Z,77.35
2022-11-29T11:18:39.541Z,71.40
2022-11-29T11:21:10.792Z,74.85
2022-11-29T11:23:47.825Z,60.35
2022-11-29T11:26:16.486Z,69.78
2022-11-29T11:28:46.220Z,73.72
2022-11-29T11:31:16.056Z,78.68
2022-11-29T11:33:44.790Z,78.93
2022-11-29T11:36:15.062Z,75.72
2022-11-29T11:38:50.953Z,80.38
2022-11-29T11:41:21.093Z,73.18
2022-11-29T11:43:57.006Z,71.00
2022-11-29T11:46:46.783Z,74.65
2022-11-29T11:49:15.677Z,75.63
2022-11-29T11:51:44.324Z,65.95
2022-11-29T11:54:15.558Z,65.88
2022-11-29T11:56:43.981Z,75.07
2022-11-29T11:59:18.797Z,76.43
2022-11-29T12:01:48.725Z,68.93
2022-11-29T12:04:19.153Z,81.97
2022-11-29T12:06:50.976Z,77.50
2022-11-29T12:09:24.678Z,78.50
2022-11-29T12:12:00.238Z,68.45
2022-11-29T12:14:34.526Z,79.82
2022-11-29T12:17:09.158Z,81.82
2022-11-29T12:19:40.592Z,83.05
2022-11-29T12:22:12.736Z,88.88
2022-11-29T12:24:45.409Z,79.32
2022-11-29T12:27:15.657Z,77.03
2022-11-29T12:29:44.038Z,78.88
2022-11-29T12:32:22.156Z,74.57
2022-11-29T12:35:01.944Z,76.43
2022-11-29T12:37:34.277Z,77.28
2022-11-29T12:40:06.962Z,72.22
2022-11-29T12:42:43.921Z,78.60
2022-11-29T12:45:22.113Z,202.40
2022-11-29T12:47:57.552Z,81.30
2022-11-29T12:50:34.025Z,67.50
2022-11-29T12:53:06.770Z,77.28
2022-11-29T12:55:40.733Z,77.18
2022-11-29T12:58:12.654Z,75.43
2022-11-29T13:00:45.771Z,80.32
2022-11-29T13:03:22.201Z,82.32
2022-11-29T13:05:57.439Z,72.45
2022-11-29T13:08:36.261Z,76.75
2022-11-29T13:11:08.253Z,67.65
2022-11-29T13:13:40.383Z,68.90
2022-11-29T13:16:14.632Z,66.45
2022-11-29T13:18:50.660Z,70.93
2022-11-29T13:21:21.221Z,72.00
2022-11-29T13:24:08.820Z,68.45
2022-11-29T13:26:38.481Z,64.40
2022-11-29T13:29:07.539Z,66.28
2022-11-29T13:31:36.137Z,65.63
2022-11-29T13:34:09.115Z,75.72
2022-11-29T13:36:45.566Z,71.95
2022-11-29T13:39:17.878Z,70.82
2022-11-29T13:41:48.446Z,67.47
2022-11-29T13:44:20.119Z,80.18
2022-11-29T13:46:51.708Z,76.07
2022-11-29T13:49:23.733Z,70.05
2022-11-29T13:52:05.073Z,68.93
2022-11-29T13:54:34.646Z,69.65
2022-11-29T13:57:03.694Z,78.75
2022-11-29T13:59:33.146Z,83.47
2022-11-29T14:02:01.563Z,66.70
2022-11-29T14:04:33.518Z,69.35
2022-11-29T14:07:06.742Z,77.32
2022-11-29T14:09:37.114Z,66.60
2022-11-29T14:12:07.526Z,78.13
2022-11-29T14:14:39.051Z,73.80
2022-11-29T14:17:08.287Z,66.47
2022-11-29T14:19:38.614Z,65.70
2022-11-29T14:22:18.253Z,75.10
2022-11-29T14:24:57.601Z,65.00
2022-11-29T14:27:44.469Z,62.13
2022-11-29T14:30:27.708Z,56.80
2022-11-29T14:32:59.090Z,67.03
2022-11-29T14:35:32.410Z,66.38
2022-11-29T14:38:06.316Z,63.50
2022-11-29T14:40:36.775Z,63.00
2022-11-29T14:43:06.017Z,55.40
2022-11-29T14:45:35.648Z,58.03
2022-11-29T14:48:04.091Z,55.10
2022-11-29T14:50:38.266Z,52.75
2022-11-29T14:53:07.213Z,57.42
2022-11-29T14:55:37.291Z,58.95
2022-11-29T14:58:23.306Z,59.08
2022-11-29T15:00:57.241Z,58.55
2022-11-29T15:03:30.093Z,55.30
2022-11-29T15:06:01.112Z,54.65
2022-11-29T15:08:34.809Z,51.28
2022-11-29T15:11:05.242Z,57.53
2022-11-29T15:13:34.566Z,56.42
2022-11-29T15:16:17.637Z,55.60
2022-11-29T15:19:05.149Z,53.50
2022-11-29T15:21:37.133Z,62.10
2022-11-29T15:24:11.695Z,59.53
2022-11-29T15:26:40.382Z,57.67
2022-11-29T15:29:15.044Z,55.58
2022-11-29T15:31:44.681Z,60.97
2022-11-29T15:34:21.007Z,62.90
2022-11-29T15:36:50.789Z,69.22
2022-11-29T15:39:29.726Z,57.88
2022-11-29T15:42:11.801Z,58.28
2022-11-29T15:44:46.522Z,59.83
2022-11-29T15:47:19.028Z,60.08
2022-11-29T15:49:47.370Z,56.55
2022-11-29T15:52:21.004Z,59.35
2022-11-29T15:54:51.388Z,59.75
2022-11-29T15:57:20.585Z,62.28
2022-11-29T15:59:50.387Z,52.72
2022-11-29T16:02:20.194Z,58.95
2022-11-29T16:04:50.400Z,51.28
2022-11-29T16:07:22.079Z,63.75
2022-11-29T16:09:52.321Z,62.30
2022-11-29T16:12:20.685Z,60.95
2022-11-29T16:14:52.810Z,53.22
2022-11-29T16:17:21.638Z,61.33
2022-11-29T16:19:50.442Z,48.13
2022-11-29T16:22:24.507Z,57.35
2022-11-29T16:24:55.357Z,51.70
2022-11-29T16:27:24.392Z,57.40
2022-11-29T16:29:55.005Z,56.72
2022-11-29T16:32:28.075Z,44.60
2022-11-29T16:34:57.176Z,51.03
2022-11-29T16:37:27.386Z,48.47
2022-11-29T16:39:58.524Z,55.15
2022-11-29T16:42:28.179Z,55.35
2022-11-29T16:45:00.177Z,59.80
2022-11-29T16:47:29.297Z,63.03
2022-11-29T16:50:14.782Z,55.83
2022-11-29T16:52:44.506Z,55.00
2022-11-29T16:55:12.852Z,54.08
2022-11-29T16:57:41.595Z,60.03
2022-11-29T17:00:14.878Z,53.70
2022-11-29T17:02:43.260Z,54.20
2022-11-29T17:05:12.170Z,52.58
2022-11-29T17:07:40.858Z,53.22
2022-11-29T17:10:11.892Z,53.17
2022-11-29T17:12:43.451Z,57.83
2022-11-29T17:15:16.180Z,51.05
2022-11-29T17:17:44.933Z,53.15
2022-11-29T17:20:14.029Z,54.30
2022-11-29T17:22:42.720Z,53.75
2022-11-29T17:25:12.678Z,52.72
2022-11-29T17:27:41.031Z,51.72
2022-11-29T17:30:11.401Z,58.05
2022-11-29T17:32:39.971Z,62.95
2022-11-29T17:35:08.586Z,55.28
2022-11-29T17:37:36.921Z,50.72
2022-11-29T17:40:05.462Z,54.22
2022-11-29T17:42:35.184Z,55.28
2022-11-29T17:45:03.533Z,53.47
2022-11-29T17:47:31.893Z,58.85
2022-11-29T17:50:00.276Z,52.90
2022-11-29T17:52:28.590Z,53.42
2022-11-29T17:54:56.937Z,54.13
2022-11-29T17:57:25.263Z,56.53
2022-11-29T17:59:55.148Z,55.58
2022-11-29T18:02:23.652Z,64.85
2022-11-29T18:04:52.098Z,57.50
2022-11-29T18:07:20.487Z,54.03
2022-11-29T18:09:49.066Z,56.15
2022-11-29T18:12:17.595Z,62.67
2022-11-29T18:14:45.930Z,59.72
2022-11-29T18:17:15.637Z,64.95
2022-11-29T18:19:44.334Z,61.63
2022-11-29T18:22:13.132Z,61.10
2022-11-29T18:24:44.152Z,56.35
2022-11-29T18:27:12.451Z,68.22
2022-11-29T18:29:40.814Z,63.53
2022-11-29T18:32:09.511Z,53.83
2022-11-29T18:34:39.317Z,57.97
2022-11-29T18:37:13.978Z,56.15
2022-11-29T18:39:44.779Z,58.70
2022-11-29T18:42:13.719Z,69.10
2022-11-29T18:44:42.094Z,60.20
2022-11-29T18:47:10.446Z,66.15
2022-11-29T18:49:40.173Z,58.47
2022-11-29T18:52:08.483Z,58.25
2022-11-29T18:54:36.853Z,69.93
2022-11-29T18:57:05.300Z,68.15
2022-11-29T18:59:33.681Z,64.63
2022-11-29T19:02:02.008Z,72.35
2022-11-29T19:04:30.613Z,68.07
2022-11-29T19:07:00.542Z,74.45
2022-11-29T19:09:28.916Z,75.03
2022-11-29T19:11:57.344Z,62.70
2022-11-29T19:14:25.710Z,81.75
2022-11-29T19:16:54.099Z,84.32
2022-11-29T19:19:22.445Z,71.30
2022-11-29T19:21:50.779Z,88.80
2022-11-29T19:24:20.549Z,59.63
2022-11-29T19:26:49.329Z,61.20
2022-11-29T19:29:17.805Z,60.78
2022-11-29T19:31:46.150Z,66.72
2022-11-29T19:34:15.040Z,63.92
2022-11-29T19:36:44.477Z,62.03
2022-11-29T19:39:13.981Z,55.35
2022-11-29T19:41:44.637Z,59.28
2022-11-29T19:44:13.089Z,50.47
2022-11-29T19:46:42.288Z,53.47
2022-11-29T19:49:11.122Z,53.97
2022-11-29T19:51:40.055Z,56.45
2022-11-29T19:54:09.773Z,52.95
2022-11-29T19:56:38.815Z,56.78
2022-11-29T19:59:09.524Z,59.50
2022-11-29T20:01:41.355Z,53.50
2022-11-29T20:04:11.078Z,56.28
2022-11-29T20:06:39.824Z,58.45
2022-11-29T20:09:08.312Z,53.42
2022-11-29T20:11:36.890Z,50.45
2022-11-29T20:14:06.236Z,50.22
2022-11-29T20:16:37.889Z,52.63
2022-11-29T20:19:09.629Z,52.17
2022-11-29T20:21:38.297Z,53.03
2022-11-29T20:24:07.705Z,58.28
2022-11-29T20:26:36.832Z,53.92
2022-11-29T20:29:05.184Z,47.20
2022-11-29T20:31:34.196Z,49.58
2022-11-29T20:34:04.502Z,57.05
2022-11-29T20:36:41.372Z,51.90
2022-11-29T20:39:15.789Z,47.55
2022-11-29T20:41:47.153Z,56.17
2022-11-29T20:44:18.032Z,61.55
2022-11-29T20:46:46.559Z,54.50
2022-11-29T20:49:17.379Z,60.78
2022-11-29T20:51:48.448Z,55.38
2022-11-29T20:54:17.884Z,63.08
2022-11-29T20:56:46.220Z,63.97
2022-11-29T20:59:14.596Z,71.47
2022-11-29T21:01:43.073Z,64.82
2022-11-29T21:04:11.500Z,72.72
2022-11-29T21:06:41.246Z,67.32
2022-11-29T21:09:09.868Z,72.30
2022-11-29T21:11:38.607Z,77.82
2022-11-29T21:14:09.248Z,79.25
2022-11-29T21:16:37.719Z,75.53
2022-11-29T21:19:06.481Z,76.80
2022-11-29T21:21:36.692Z,79.25
2022-11-29T21:24:08.384Z,87.25
2022-11-29T21:26:41.985Z,75.95
2022-11-29T21:29:16.086Z,87.10
2022-11-29T21:31:44.901Z,78.15
2022-11-29T21:34:13.446Z,91.97
2022-11-29T21:36:41.919Z,95.55
2022-11-29T21:39:14.296Z,92.25
2022-11-29T21:41:42.872Z,88.20
2022-11-29T21:44:11.248Z,86.00
2022-11-29T21:46:39.661Z,97.82
2022-11-29T21:49:08.048Z,94.57
2022-11-29T21:51:36.420Z,97.68
2022-11-29T21:54:04.842Z,83.15
2022-11-29T21:56:34.529Z,96.72
2022-11-29T21:59:02.913Z,100.28
2022-11-29T22:01:33.619Z,89.20
2022-11-29T22:04:02.215Z,93.07
2022-11-29T22:06:30.655Z,87.70
2022-11-29T22:09:00.002Z,103.38
2022-11-29T22:11:35.563Z,94.82
2022-11-29T22:14:15.766Z,86.50
2022-11-29T22:16:44.864Z,96.57
2022-11-29T22:19:13.598Z,91.60
2022-11-29T22:21:42.102Z,87.07
2022-11-29T22:24:10.592Z,84.80
2022-11-29T22:26:39.489Z,84.30
2022-11-29T22:29:09.274Z,78.38
2022-11-29T22:31:37.758Z,77.30
2022-11-29T22:34:06.222Z,87.75
2022-11-29T22:36:36.098Z,95.20
2022-11-29T22:39:04.562Z,103.22
2022-11-29T22:41:33.182Z,86.95
2022-11-29T22:44:01.653Z,73.05
2022-11-29T22:46:31.407Z,95.65
2022-11-29T22:49:00.660Z,83.13
2022-11-29T22:51:30.413Z,80.13
2022-11-29T22:53:59.500Z,70.80
2022-11-29T22:56:29.498Z,82.53
2022-11-29T22:58:58.277Z,78.43
2022-11-29T23:01:27.548Z,74.18
2022-11-29T23:03:57.652Z,69.10
2022-11-29T23:06:26.633Z,87.85
2022-11-29T23:08:55.746Z,80.93
2022-11-29T23:11:25.026Z,86.35
2022-11-29T23:13:53.396Z,61.67
2022-11-29T23:16:23.075Z,77.45
2022-11-29T23:18:51.494Z,87.82
2022-11-29T23:21:22.003Z,80.47
2022-11-29T23:23:55.806Z,72.55
2022-11-29T23:26:26.148Z,72.90
2022-11-29T23:28:54.670Z,79.25
2022-11-29T23:31:23.349Z,90.70
2022-11-29T23:33:51.752Z,93.47
2022-11-29T23:36:21.633Z,94.53
2022-11-29T23:38:49.999Z,100.65
2022-11-29T23:41:18.383Z,115.97
2022-11-29T23:43:46.748Z,89.78
2022-11-29T23:46:16.103Z,93.18
2022-11-29T23:48:44.582Z,128.43
2022-11-29T23:51:13.494Z,85.90
2022-11-29T23:53:43.343Z,107.78
2022-11-29T23:56:13.306Z,115.72
2022-11-29T23:58:41.652Z,146.85
